sensor_id;sensor_type;location;lat;lon;timestamp;P1;durP1;ratioP1;P2;durP2;ratioP2
57113;SDS011;42994;51.606;9.988;2023-02-15T00:01:31;20.92;;;11.80;;
57113;SDS011;42994;51.606;9.988;2023-02-15T00:03:58;20.30;;;11.10;;
57113;SDS011;42994;51.606;9.988;2023-02-15T00:06:27;21.45;;;12.63;;
57113;SDS011;42994;51.606;9.988;2023-02-15T00:08:53;22.35;;;12.77;;
57113;SDS011;42994;51.606;9.988;2023-02-15T00:11:21;21.95;;;12.60;;
57113;SDS011;42994;51.606;9.988;2023-02-15T00:14:02;21.58;;;12.85;;
57113;SDS011;42994;51.606;9.988;2023-02-15T00:16:28;23.17;;;12.57;;
57113;SDS011;42994;51.606;9.988;2023-02-15T00:18:55;24.35;;;14.43;;
57113;SDS011;42994;51.606;9.988;2023-02-15T00:21:22;26.25;;;14.20;;
57113;SDS011;42994;51.606;9.988;2023-02-15T00:23:50;22.80;;;13.82;;
57113;SDS011;42994;51.606;9.988;2023-02-15T00:26:17;23.65;;;13.93;;
57113;SDS011;42994;51.606;9.988;2023-02-15T00:28:43;27.67;;;13.85;;
57113;SDS011;42994;51.606;9.988;2023-02-15T00:31:10;22.90;;;13.13;;
57113;SDS011;42994;51.606;9.988;2023-02-15T00:33:38;24.40;;;13.57;;
57113;SDS011;42994;51.606;9.988;2023-02-15T00:36:06;22.15;;;13.43;;
57113;SDS011;42994;51.606;9.988;2023-02-15T00:38:35;22.77;;;13.32;;
57113;SDS011;42994;51.606;9.988;2023-02-15T00:41:04;24.77;;;14.00;;
57113;SDS011;42994;51.606;9.988;2023-02-15T00:43:32;21.65;;;13.77;;
57113;SDS011;42994;51.606;9.988;2023-02-15T00:46:00;23.92;;;13.07;;
57113;SDS011;42994;51.606;9.988;2023-02-15T00:48:27;26.25;;;13.63;;
57113;SDS011;42994;51.606;9.988;2023-02-15T00:50:55;24.45;;;14.60;;
57113;SDS011;42994;51.606;9.988;2023-02-15T00:53:23;27.33;;;15.02;;
57113;SDS011;42994;51.606;9.988;2023-02-15T00:55:51;30.95;;;15.57;;
57113;SDS011;42994;51.606;9.988;2023-02-15T00:58:19;25.85;;;13.50;;
57113;SDS011;42994;51.606;9.988;2023-02-15T01:00:47;27.48;;;14.57;;
57113;SDS011;42994;51.606;9.988;2023-02-15T01:03:15;28.45;;;14.38;;
57113;SDS011;42994;51.606;9.988;2023-02-15T01:05:43;22.20;;;13.15;;
57113;SDS011;42994;51.606;9.988;2023-02-15T01:08:10;27.55;;;13.48;;
57113;SDS011;42994;51.606;9.988;2023-02-15T01:10:37;21.92;;;13.55;;
57113;SDS011;42994;51.606;9.988;2023-02-15T01:13:04;29.83;;;14.85;;
57113;SDS011;42994;51.606;9.988;2023-02-15T01:15:35;25.50;;;14.10;;
57113;SDS011;42994;51.606;9.988;2023-02-15T01:18:02;25.77;;;13.35;;
57113;SDS011;42994;51.606;9.988;2023-02-15T01:20:29;25.80;;;14.40;;
57113;SDS011;42994;51.606;9.988;2023-02-15T01:22:56;25.17;;;13.63;;
57113;SDS011;42994;51.606;9.988;2023-02-15T01:25:23;25.73;;;14.90;;
57113;SDS011;42994;51.606;9.988;2023-02-15T01:27:50;34.63;;;15.45;;
57113;SDS011;42994;51.606;9.988;2023-02-15T01:30:17;27.40;;;15.75;;
57113;SDS011;42994;51.606;9.988;2023-02-15T01:32:45;24.27;;;14.30;;
57113;SDS011;42994;51.606;9.988;2023-02-15T01:35:11;27.27;;;15.70;;
57113;SDS011;42994;51.606;9.988;2023-02-15T01:37:38;25.77;;;14.82;;
57113;SDS011;42994;51.606;9.988;2023-02-15T01:40:06;30.17;;;15.48;;
57113;SDS011;42994;51.606;9.988;2023-02-15T01:42:37;28.98;;;16.27;;
57113;SDS011;42994;51.606;9.988;2023-02-15T01:45:05;29.83;;;15.95;;
57113;SDS011;42994;51.606;9.988;2023-02-15T01:47:48;33.03;;;17.55;;
57113;SDS011;42994;51.606;9.988;2023-02-15T01:50:20;28.58;;;15.25;;
57113;SDS011;42994;51.606;9.988;2023-02-15T01:55:19;32.13;;;16.08;;
57113;SDS011;42994;51.606;9.988;2023-02-15T01:57:48;34.72;;;17.48;;
57113;SDS011;42994;51.606;9.988;2023-02-15T02:00:16;31.00;;;16.52;;
57113;SDS011;42994;51.606;9.988;2023-02-15T02:02:48;31.75;;;17.10;;
57113;SDS011;42994;51.606;9.988;2023-02-15T02:05:21;30.52;;;15.10;;
57113;SDS011;42994;51.606;9.988;2023-02-15T02:07:48;61.15;;;17.83;;
57113;SDS011;42994;51.606;9.988;2023-02-15T02:10:18;39.58;;;18.25;;
57113;SDS011;42994;51.606;9.988;2023-02-15T02:12:49;33.63;;;17.10;;
57113;SDS011;42994;51.606;9.988;2023-02-15T02:15:18;35.10;;;18.15;;
57113;SDS011;42994;51.606;9.988;2023-02-15T02:20:43;40.97;;;17.80;;
57113;SDS011;42994;51.606;9.988;2023-02-15T02:23:27;41.80;;;18.20;;
57113;SDS011;42994;51.606;9.988;2023-02-15T02:26:16;37.60;;;18.92;;
57113;SDS011;42994;51.606;9.988;2023-02-15T02:32:21;38.97;;;19.35;;
57113;SDS011;42994;51.606;9.988;2023-02-15T02:35:07;31.65;;;17.88;;
57113;SDS011;42994;51.606;9.988;2023-02-15T02:37:42;38.60;;;19.63;;
57113;SDS011;42994;51.606;9.988;2023-02-15T02:40:18;39.35;;;18.92;;
57113;SDS011;42994;51.606;9.988;2023-02-15T02:42:53;45.60;;;20.80;;
57113;SDS011;42994;51.606;9.988;2023-02-15T02:45:25;33.63;;;16.35;;
57113;SDS011;42994;51.606;9.988;2023-02-15T02:47:56;34.38;;;18.27;;
57113;SDS011;42994;51.606;9.988;2023-02-15T02:50:29;31.92;;;17.83;;
57113;SDS011;42994;51.606;9.988;2023-02-15T02:52:57;30.63;;;15.80;;
57113;SDS011;42994;51.606;9.988;2023-02-15T02:55:26;27.98;;;16.23;;
57113;SDS011;42994;51.606;9.988;2023-02-15T02:57:57;32.20;;;15.18;;
57113;SDS011;42994;51.606;9.988;2023-02-15T03:00:30;25.05;;;14.77;;
57113;SDS011;42994;51.606;9.988;2023-02-15T03:03:02;25.88;;;14.85;;
57113;SDS011;42994;51.606;9.988;2023-02-15T03:05:38;28.38;;;15.05;;
57113;SDS011;42994;51.606;9.988;2023-02-15T03:08:08;31.13;;;16.00;;
57113;SDS011;42994;51.606;9.988;2023-02-15T03:10:35;28.13;;;15.77;;
57113;SDS011;42994;51.606;9.988;2023-02-15T03:13:05;30.83;;;16.25;;
57113;SDS011;42994;51.606;9.988;2023-02-15T03:15:33;27.13;;;15.48;;
57113;SDS011;42994;51.606;9.988;2023-02-15T03:18:16;25.02;;;14.65;;
57113;SDS011;42994;51.606;9.988;2023-02-15T03:20:45;25.05;;;15.05;;
57113;SDS011;42994;51.606;9.988;2023-02-15T03:23:14;35.85;;;16.20;;
57113;SDS011;42994;51.606;9.988;2023-02-15T03:25:46;25.73;;;15.02;;
57113;SDS011;42994;51.606;9.988;2023-02-15T03:28:20;26.45;;;15.40;;
57113;SDS011;42994;51.606;9.988;2023-02-15T03:30:52;27.27;;;15.55;;
57113;SDS011;42994;51.606;9.988;2023-02-15T03:33:22;30.83;;;15.43;;
57113;SDS011;42994;51.606;9.988;2023-02-15T03:35:52;24.95;;;13.82;;
57113;SDS011;42994;51.606;9.988;2023-02-15T03:38:25;27.73;;;15.85;;
57113;SDS011;42994;51.606;9.988;2023-02-15T03:40:56;27.90;;;17.23;;
57113;SDS011;42994;51.606;9.988;2023-02-15T03:43:38;103.35;;;19.55;;
57113;SDS011;42994;51.606;9.988;2023-02-15T03:46:11;58.78;;;16.27;;
57113;SDS011;42994;51.606;9.988;2023-02-15T03:48:45;41.40;;;14.57;;
57113;SDS011;42994;51.606;9.988;2023-02-15T03:51:18;51.33;;;14.48;;
57113;SDS011;42994;51.606;9.988;2023-02-15T03:54:00;24.20;;;14.07;;
57113;SDS011;42994;51.606;9.988;2023-02-15T03:56:29;27.92;;;14.80;;
57113;SDS011;42994;51.606;9.988;2023-02-15T03:58:56;60.97;;;15.77;;
57113;SDS011;42994;51.606;9.988;2023-02-15T04:01:42;25.05;;;13.50;;
57113;SDS011;42994;51.606;9.988;2023-02-15T04:04:24;25.95;;;13.73;;
57113;SDS011;42994;51.606;9.988;2023-02-15T04:06:56;22.90;;;14.02;;
57113;SDS011;42994;51.606;9.988;2023-02-15T04:09:23;23.50;;;13.70;;
57113;SDS011;42994;51.606;9.988;2023-02-15T04:12:07;23.65;;;13.48;;
57113;SDS011;42994;51.606;9.988;2023-02-15T04:14:34;28.55;;;14.68;;
57113;SDS011;42994;51.606;9.988;2023-02-15T04:17:19;23.23;;;13.07;;
57113;SDS011;42994;51.606;9.988;2023-02-15T04:19:45;26.73;;;15.02;;
57113;SDS011;42994;51.606;9.988;2023-02-15T04:22:31;24.35;;;13.30;;
57113;SDS011;42994;51.606;9.988;2023-02-15T04:25:15;20.08;;;12.65;;
57113;SDS011;42994;51.606;9.988;2023-02-15T04:27:42;25.30;;;13.07;;
57113;SDS011;42994;51.606;9.988;2023-02-15T04:30:11;22.55;;;13.52;;
57113;SDS011;42994;51.606;9.988;2023-02-15T04:32:38;33.30;;;14.13;;
57113;SDS011;42994;51.606;9.988;2023-02-15T04:35:05;51.65;;;15.45;;
57113;SDS011;42994;51.606;9.988;2023-02-15T04:37:34;28.98;;;14.52;;
57113;SDS011;42994;51.606;9.988;2023-02-15T04:40:02;43.63;;;15.60;;
57113;SDS011;42994;51.606;9.988;2023-02-15T04:42:29;24.60;;;13.63;;
57113;SDS011;42994;51.606;9.988;2023-02-15T04:44:56;23.55;;;13.70;;
57113;SDS011;42994;51.606;9.988;2023-02-15T04:47:22;20.65;;;13.00;;
57113;SDS011;42994;51.606;9.988;2023-02-15T04:49:49;41.35;;;14.55;;
57113;SDS011;42994;51.606;9.988;2023-02-15T04:52:16;26.33;;;14.82;;
57113;SDS011;42994;51.606;9.988;2023-02-15T04:54:44;26.70;;;14.68;;
57113;SDS011;42994;51.606;9.988;2023-02-15T04:57:11;26.17;;;15.13;;
57113;SDS011;42994;51.606;9.988;2023-02-15T04:59:39;27.23;;;15.18;;
57113;SDS011;42994;51.606;9.988;2023-02-15T05:02:05;78.00;;;36.95;;
57113;SDS011;42994;51.606;9.988;2023-02-15T05:04:32;52.28;;;25.65;;
57113;SDS011;42994;51.606;9.988;2023-02-15T05:06:59;33.50;;;16.75;;
57113;SDS011;42994;51.606;9.988;2023-02-15T05:09:25;28.67;;;14.73;;
57113;SDS011;42994;51.606;9.988;2023-02-15T05:11:53;30.42;;;15.95;;
57113;SDS011;42994;51.606;9.988;2023-02-15T05:14:20;26.17;;;14.27;;
57113;SDS011;42994;51.606;9.988;2023-02-15T05:16:47;27.90;;;16.02;;
57113;SDS011;42994;51.606;9.988;2023-02-15T05:19:13;24.27;;;13.25;;
57113;SDS011;42994;51.606;9.988;2023-02-15T05:21:40;24.50;;;14.35;;
57113;SDS011;42994;51.606;9.988;2023-02-15T05:24:07;26.85;;;14.43;;
57113;SDS011;42994;51.606;9.988;2023-02-15T05:26:47;25.92;;;14.20;;
57113;SDS011;42994;51.606;9.988;2023-02-15T05:29:33;25.42;;;13.95;;
57113;SDS011;42994;51.606;9.988;2023-02-15T05:31:59;22.17;;;13.20;;
57113;SDS011;42994;51.606;9.988;2023-02-15T05:34:27;26.88;;;13.80;;
57113;SDS011;42994;51.606;9.988;2023-02-15T05:36:54;21.95;;;12.85;;
57113;SDS011;42994;51.606;9.988;2023-02-15T05:39:20;24.73;;;14.07;;
57113;SDS011;42994;51.606;9.988;2023-02-15T05:41:47;24.73;;;14.25;;
57113;SDS011;42994;51.606;9.988;2023-02-15T05:44:14;24.92;;;13.30;;
57113;SDS011;42994;51.606;9.988;2023-02-15T05:46:42;25.60;;;13.98;;
57113;SDS011;42994;51.606;9.988;2023-02-15T05:49:08;21.10;;;13.23;;
57113;SDS011;42994;51.606;9.988;2023-02-15T05:51:35;24.40;;;14.98;;
57113;SDS011;42994;51.606;9.988;2023-02-15T05:54:02;41.15;;;16.45;;
57113;SDS011;42994;51.606;9.988;2023-02-15T05:56:28;43.40;;;15.57;;
57113;SDS011;42994;51.606;9.988;2023-02-15T05:58:55;31.45;;;15.07;;
57113;SDS011;42994;51.606;9.988;2023-02-15T06:01:22;25.10;;;15.07;;
57113;SDS011;42994;51.606;9.988;2023-02-15T06:03:50;26.52;;;15.15;;
57113;SDS011;42994;51.606;9.988;2023-02-15T06:06:17;28.35;;;15.63;;
57113;SDS011;42994;51.606;9.988;2023-02-15T06:08:44;83.95;;;19.10;;
57113;SDS011;42994;51.606;9.988;2023-02-15T06:11:13;39.80;;;14.85;;
57113;SDS011;42994;51.606;9.988;2023-02-15T06:13:40;20.73;;;12.88;;
57113;SDS011;42994;51.606;9.988;2023-02-15T06:16:07;25.52;;;14.13;;
57113;SDS011;42994;51.606;9.988;2023-02-15T06:18:34;22.65;;;12.60;;
57113;SDS011;42994;51.606;9.988;2023-02-15T06:21:02;26.08;;;13.65;;
57113;SDS011;42994;51.606;9.988;2023-02-15T06:23:29;27.70;;;15.02;;
57113;SDS011;42994;51.606;9.988;2023-02-15T06:25:55;23.15;;;12.88;;
57113;SDS011;42994;51.606;9.988;2023-02-15T06:28:22;27.85;;;14.55;;
57113;SDS011;42994;51.606;9.988;2023-02-15T06:30:50;27.23;;;15.02;;
57113;SDS011;42994;51.606;9.988;2023-02-15T06:33:17;33.90;;;17.88;;
57113;SDS011;42994;51.606;9.988;2023-02-15T06:35:44;30.90;;;16.15;;
57113;SDS011;42994;51.606;9.988;2023-02-15T06:38:12;30.08;;;15.52;;
57113;SDS011;42994;51.606;9.988;2023-02-15T06:40:39;28.95;;;16.30;;
57113;SDS011;42994;51.606;9.988;2023-02-15T06:43:06;28.80;;;16.02;;
57113;SDS011;42994;51.606;9.988;2023-02-15T06:45:32;28.17;;;15.20;;
57113;SDS011;42994;51.606;9.988;2023-02-15T06:47:59;27.50;;;15.57;;
57113;SDS011;42994;51.606;9.988;2023-02-15T06:50:26;28.35;;;16.35;;
57113;SDS011;42994;51.606;9.988;2023-02-15T06:52:55;26.67;;;14.98;;
57113;SDS011;42994;51.606;9.988;2023-02-15T06:55:23;25.20;;;14.48;;
57113;SDS011;42994;51.606;9.988;2023-02-15T06:57:50;27.23;;;15.25;;
57113;SDS011;42994;51.606;9.988;2023-02-15T07:00:17;27.98;;;13.77;;
57113;SDS011;42994;51.606;9.988;2023-02-15T07:02:44;24.10;;;14.07;;
57113;SDS011;42994;51.606;9.988;2023-02-15T07:05:11;24.83;;;14.77;;
57113;SDS011;42994;51.606;9.988;2023-02-15T07:07:37;27.08;;;14.57;;
57113;SDS011;42994;51.606;9.988;2023-02-15T07:10:05;26.67;;;14.43;;
57113;SDS011;42994;51.606;9.988;2023-02-15T07:12:33;27.48;;;13.45;;
57113;SDS011;42994;51.606;9.988;2023-02-15T07:15:10;23.77;;;13.27;;
57113;SDS011;42994;51.606;9.988;2023-02-15T07:17:38;22.45;;;12.35;;
57113;SDS011;42994;51.606;9.988;2023-02-15T07:20:06;22.48;;;12.23;;
57113;SDS011;42994;51.606;9.988;2023-02-15T07:22:35;21.13;;;13.10;;
57113;SDS011;42994;51.606;9.988;2023-02-15T07:25:02;22.80;;;12.57;;
57113;SDS011;42994;51.606;9.988;2023-02-15T07:27:30;20.02;;;12.50;;
57113;SDS011;42994;51.606;9.988;2023-02-15T07:29:58;24.05;;;14.07;;
57113;SDS011;42994;51.606;9.988;2023-02-15T07:32:27;23.48;;;13.70;;
57113;SDS011;42994;51.606;9.988;2023-02-15T07:34:54;25.35;;;14.80;;
57113;SDS011;42994;51.606;9.988;2023-02-15T07:37:21;28.20;;;14.88;;
57113;SDS011;42994;51.606;9.988;2023-02-15T07:39:48;26.15;;;14.50;;
57113;SDS011;42994;51.606;9.988;2023-02-15T07:42:14;30.27;;;16.52;;
57113;SDS011;42994;51.606;9.988;2023-02-15T07:44:41;27.27;;;16.05;;
57113;SDS011;42994;51.606;9.988;2023-02-15T07:47:09;27.35;;;15.65;;
57113;SDS011;42994;51.606;9.988;2023-02-15T07:49:37;29.98;;;17.45;;
57113;SDS011;42994;51.606;9.988;2023-02-15T07:52:04;33.38;;;17.25;;
57113;SDS011;42994;51.606;9.988;2023-02-15T07:54:31;31.63;;;16.65;;
57113;SDS011;42994;51.606;9.988;2023-02-15T07:56:57;26.55;;;14.55;;
57113;SDS011;42994;51.606;9.988;2023-02-15T07:59:24;31.00;;;17.23;;
57113;SDS011;42994;51.606;9.988;2023-02-15T08:01:51;32.60;;;17.48;;
57113;SDS011;42994;51.606;9.988;2023-02-15T08:04:20;30.67;;;18.02;;
57113;SDS011;42994;51.606;9.988;2023-02-15T08:06:47;32.15;;;17.75;;
57113;SDS011;42994;51.606;9.988;2023-02-15T08:09:13;31.85;;;16.40;;
57113;SDS011;42994;51.606;9.988;2023-02-15T08:11:40;33.25;;;17.67;;
57113;SDS011;42994;51.606;9.988;2023-02-15T08:14:08;33.67;;;17.90;;
57113;SDS011;42994;51.606;9.988;2023-02-15T08:16:37;32.58;;;16.13;;
57113;SDS011;42994;51.606;9.988;2023-02-15T08:19:06;28.08;;;15.52;;
57113;SDS011;42994;51.606;9.988;2023-02-15T08:21:35;25.75;;;14.52;;
57113;SDS011;42994;51.606;9.988;2023-02-15T08:24:04;24.35;;;14.00;;
57113;SDS011;42994;51.606;9.988;2023-02-15T08:26:32;24.70;;;14.20;;
57113;SDS011;42994;51.606;9.988;2023-02-15T08:29:00;22.98;;;13.32;;
57113;SDS011;42994;51.606;9.988;2023-02-15T08:31:28;29.88;;;15.30;;
57113;SDS011;42994;51.606;9.988;2023-02-15T08:33:56;29.25;;;15.45;;
57113;SDS011;42994;51.606;9.988;2023-02-15T08:36:23;30.88;;;17.27;;
57113;SDS011;42994;51.606;9.988;2023-02-15T08:38:53;34.25;;;17.65;;
57113;SDS011;42994;51.606;9.988;2023-02-15T08:41:20;29.52;;;16.35;;
57113;SDS011;42994;51.606;9.988;2023-02-15T08:43:50;31.58;;;17.20;;
57113;SDS011;42994;51.606;9.988;2023-02-15T08:46:19;37.50;;;18.27;;
57113;SDS011;42994;51.606;9.988;2023-02-15T08:48:47;34.78;;;17.52;;
57113;SDS011;42994;51.606;9.988;2023-02-15T08:51:14;36.72;;;17.45;;
57113;SDS011;42994;51.606;9.988;2023-02-15T08:53:43;37.60;;;17.65;;
57113;SDS011;42994;51.606;9.988;2023-02-15T08:56:15;33.30;;;17.05;;
57113;SDS011;42994;51.606;9.988;2023-02-15T08:58:44;34.35;;;17.00;;
57113;SDS011;42994;51.606;9.988;2023-02-15T09:01:11;34.25;;;18.63;;
57113;SDS011;42994;51.606;9.988;2023-02-15T09:03:43;32.17;;;15.93;;
57113;SDS011;42994;51.606;9.988;2023-02-15T09:06:11;31.55;;;15.15;;
57113;SDS011;42994;51.606;9.988;2023-02-15T09:08:39;34.45;;;15.32;;
57113;SDS011;42994;51.606;9.988;2023-02-15T09:11:07;29.25;;;14.30;;
57113;SDS011;42994;51.606;9.988;2023-02-15T09:13:38;30.05;;;14.32;;
57113;SDS011;42994;51.606;9.988;2023-02-15T09:16:06;29.85;;;14.90;;
57113;SDS011;42994;51.606;9.988;2023-02-15T09:18:36;32.03;;;15.25;;
57113;SDS011;42994;51.606;9.988;2023-02-15T09:21:05;25.83;;;14.50;;
57113;SDS011;42994;51.606;9.988;2023-02-15T09:23:33;33.72;;;17.42;;
57113;SDS011;42994;51.606;9.988;2023-02-15T09:26:04;32.10;;;16.95;;
57113;SDS011;42994;51.606;9.988;2023-02-15T09:28:32;41.53;;;18.83;;
57113;SDS011;42994;51.606;9.988;2023-02-15T09:31:10;43.70;;;18.85;;
57113;SDS011;42994;51.606;9.988;2023-02-15T09:33:38;44.03;;;19.15;;
57113;SDS011;42994;51.606;9.988;2023-02-15T09:36:13;39.38;;;20.17;;
57113;SDS011;42994;51.606;9.988;2023-02-15T09:38:41;39.08;;;19.35;;
57113;SDS011;42994;51.606;9.988;2023-02-15T09:41:13;35.05;;;17.60;;
57113;SDS011;42994;51.606;9.988;2023-02-15T09:43:46;38.63;;;19.05;;
57113;SDS011;42994;51.606;9.988;2023-02-15T09:46:27;34.78;;;17.83;;
57113;SDS011;42994;51.606;9.988;2023-02-15T09:49:12;42.15;;;19.58;;
57113;SDS011;42994;51.606;9.988;2023-02-15T09:51:52;41.47;;;18.60;;
57113;SDS011;42994;51.606;9.988;2023-02-15T09:54:32;35.90;;;19.30;;
57113;SDS011;42994;51.606;9.988;2023-02-15T09:57:10;30.83;;;16.95;;
57113;SDS011;42994;51.606;9.988;2023-02-15T09:59:47;32.90;;;16.67;;
57113;SDS011;42994;51.606;9.988;2023-02-15T10:02:27;31.30;;;17.17;;
57113;SDS011;42994;51.606;9.988;2023-02-15T10:05:07;29.70;;;15.60;;
57113;SDS011;42994;51.606;9.988;2023-02-15T10:07:50;31.92;;;16.05;;
57113;SDS011;42994;51.606;9.988;2023-02-15T10:10:34;27.13;;;14.93;;
57113;SDS011;42994;51.606;9.988;2023-02-15T10:13:15;26.35;;;14.88;;
57113;SDS011;42994;51.606;9.988;2023-02-15T10:15:57;24.73;;;14.43;;
57113;SDS011;42994;51.606;9.988;2023-02-15T10:18:37;27.85;;;15.10;;
57113;SDS011;42994;51.606;9.988;2023-02-15T10:21:14;25.20;;;15.20;;
57113;SDS011;42994;51.606;9.988;2023-02-15T10:23:49;31.65;;;17.00;;
57113;SDS011;42994;51.606;9.988;2023-02-15T10:26:34;29.33;;;15.52;;
57113;SDS011;42994;51.606;9.988;2023-02-15T10:29:09;26.83;;;13.38;;
57113;SDS011;42994;51.606;9.988;2023-02-15T10:31:47;19.77;;;12.32;;
57113;SDS011;42994;51.606;9.988;2023-02-15T10:34:18;24.20;;;14.32;;
57113;SDS011;42994;51.606;9.988;2023-02-15T10:36:49;20.60;;;13.32;;
57113;SDS011;42994;51.606;9.988;2023-02-15T10:39:31;20.70;;;12.18;;
57113;SDS011;42994;51.606;9.988;2023-02-15T10:42:06;19.88;;;11.85;;
57113;SDS011;42994;51.606;9.988;2023-02-15T10:44:46;21.42;;;12.60;;
57113;SDS011;42994;51.606;9.988;2023-02-15T10:47:33;20.73;;;12.27;;
57113;SDS011;42994;51.606;9.988;2023-02-15T10:50:15;21.48;;;11.98;;
57113;SDS011;42994;51.606;9.988;2023-02-15T10:52:52;19.52;;;11.23;;
57113;SDS011;42994;51.606;9.988;2023-02-15T10:55:33;17.73;;;11.10;;
57113;SDS011;42994;51.606;9.988;2023-02-15T10:58:11;18.73;;;11.40;;
57113;SDS011;42994;51.606;9.988;2023-02-15T11:00:50;18.15;;;11.63;;
57113;SDS011;42994;51.606;9.988;2023-02-15T11:03:29;17.65;;;11.63;;
57113;SDS011;42994;51.606;9.988;2023-02-15T11:06:08;21.95;;;12.25;;
57113;SDS011;42994;51.606;9.988;2023-02-15T11:08:39;19.38;;;11.48;;
57113;SDS011;42994;51.606;9.988;2023-02-15T11:11:10;19.98;;;11.63;;
57113;SDS011;42994;51.606;9.988;2023-02-15T11:16:11;18.38;;;11.27;;
57113;SDS011;42994;51.606;9.988;2023-02-15T11:18:43;21.25;;;12.55;;
57113;SDS011;42994;51.606;9.988;2023-02-15T11:21:17;17.80;;;11.50;;
57113;SDS011;42994;51.606;9.988;2023-02-15T11:23:48;20.77;;;12.15;;
57113;SDS011;42994;51.606;9.988;2023-02-15T11:26:16;18.88;;;10.98;;
57113;SDS011;42994;51.606;9.988;2023-02-15T11:31:17;18.10;;;12.35;;
57113;SDS011;42994;51.606;9.988;2023-02-15T11:33:47;17.58;;;10.75;;
57113;SDS011;42994;51.606;9.988;2023-02-15T11:36:20;26.42;;;15.23;;
57113;SDS011;42994;51.606;9.988;2023-02-15T11:38:50;33.95;;;18.63;;
57113;SDS011;42994;51.606;9.988;2023-02-15T11:41:24;26.33;;;15.15;;
57113;SDS011;42994;51.606;9.988;2023-02-15T11:43:56;20.55;;;12.75;;
57113;SDS011;42994;51.606;9.988;2023-02-15T11:46:28;19.02;;;11.75;;
57113;SDS011;42994;51.606;9.988;2023-02-15T11:48:54;21.08;;;12.13;;
57113;SDS011;42994;51.606;9.988;2023-02-15T11:51:23;21.20;;;11.90;;
57113;SDS011;42994;51.606;9.988;2023-02-15T11:53:50;16.27;;;11.20;;
57113;SDS011;42994;51.606;9.988;2023-02-15T11:56:18;18.65;;;10.43;;
57113;SDS011;42994;51.606;9.988;2023-02-15T11:58:47;15.93;;;11.25;;
57113;SDS011;42994;51.606;9.988;2023-02-15T12:01:20;15.13;;;10.23;;
57113;SDS011;42994;51.606;9.988;2023-02-15T12:03:51;19.00;;;10.40;;
57113;SDS011;42994;51.606;9.988;2023-02-15T12:06:23;16.83;;;10.63;;
57113;SDS011;42994;51.606;9.988;2023-02-15T12:08:53;16.83;;;11.05;;
57113;SDS011;42994;51.606;9.988;2023-02-15T12:11:26;19.15;;;12.07;;
57113;SDS011;42994;51.606;9.988;2023-02-15T12:13:59;18.38;;;11.95;;
57113;SDS011;42994;51.606;9.988;2023-02-15T12:16:27;17.15;;;11.05;;
57113;SDS011;42994;51.606;9.988;2023-02-15T12:18:58;17.83;;;11.18;;
57113;SDS011;42994;51.606;9.988;2023-02-15T12:21:29;18.65;;;11.95;;
57113;SDS011;42994;51.606;9.988;2023-02-15T12:24:01;17.98;;;12.02;;
57113;SDS011;42994;51.606;9.988;2023-02-15T12:26:36;18.08;;;11.43;;
57113;SDS011;42994;51.606;9.988;2023-02-15T12:29:06;17.48;;;10.07;;
57113;SDS011;42994;51.606;9.988;2023-02-15T12:31:40;19.48;;;11.18;;
57113;SDS011;42994;51.606;9.988;2023-02-15T12:34:11;19.80;;;11.02;;
57113;SDS011;42994;51.606;9.988;2023-02-15T12:36:50;19.95;;;11.55;;
57113;SDS011;42994;51.606;9.988;2023-02-15T12:39:24;16.08;;;10.57;;
57113;SDS011;42994;51.606;9.988;2023-02-15T12:41:59;17.52;;;10.82;;
57113;SDS011;42994;51.606;9.988;2023-02-15T12:44:29;20.88;;;13.07;;
57113;SDS011;42994;51.606;9.988;2023-02-15T12:46:58;18.80;;;11.93;;
57113;SDS011;42994;51.606;9.988;2023-02-15T12:49:27;17.55;;;10.43;;
57113;SDS011;42994;51.606;9.988;2023-02-15T12:51:56;17.95;;;11.60;;
57113;SDS011;42994;51.606;9.988;2023-02-15T12:54:29;15.90;;;10.50;;
57113;SDS011;42994;51.606;9.988;2023-02-15T12:57:02;18.10;;;11.38;;
57113;SDS011;42994;51.606;9.988;2023-02-15T12:59:46;16.88;;;11.40;;
57113;SDS011;42994;51.606;9.988;2023-02-15T13:02:15;16.48;;;10.45;;
57113;SDS011;42994;51.606;9.988;2023-02-15T13:04:48;16.85;;;10.68;;
57113;SDS011;42994;51.606;9.988;2023-02-15T13:07:17;17.85;;;12.60;;
57113;SDS011;42994;51.606;9.988;2023-02-15T13:09:45;27.75;;;17.92;;
57113;SDS011;42994;51.606;9.988;2023-02-15T13:12:16;25.60;;;16.52;;
57113;SDS011;42994;51.606;9.988;2023-02-15T13:14:47;20.48;;;12.35;;
57113;SDS011;42994;51.606;9.988;2023-02-15T13:17:16;22.98;;;13.35;;
57113;SDS011;42994;51.606;9.988;2023-02-15T13:19:46;21.83;;;13.98;;
57113;SDS011;42994;51.606;9.988;2023-02-15T13:22:20;19.92;;;11.68;;
57113;SDS011;42994;51.606;9.988;2023-02-15T13:24:50;23.92;;;11.02;;
57113;SDS011;42994;51.606;9.988;2023-02-15T13:27:20;19.30;;;11.68;;
57113;SDS011;42994;51.606;9.988;2023-02-15T13:29:51;17.90;;;11.25;;
57113;SDS011;42994;51.606;9.988;2023-02-15T13:32:25;16.02;;;10.82;;
57113;SDS011;42994;51.606;9.988;2023-02-15T13:34:54;19.67;;;10.93;;
57113;SDS011;42994;51.606;9.988;2023-02-15T13:37:30;14.65;;;9.80;;
57113;SDS011;42994;51.606;9.988;2023-02-15T13:40:21;15.57;;;10.93;;
57113;SDS011;42994;51.606;9.988;2023-02-15T13:42:52;13.60;;;9.70;;
57113;SDS011;42994;51.606;9.988;2023-02-15T13:45:28;18.88;;;10.20;;
57113;SDS011;42994;51.606;9.988;2023-02-15T13:48:05;16.98;;;9.52;;
57113;SDS011;42994;51.606;9.988;2023-02-15T13:53:42;15.10;;;9.70;;
57113;SDS011;42994;51.606;9.988;2023-02-15T13:56:22;15.52;;;9.52;;
57113;SDS011;42994;51.606;9.988;2023-02-15T14:01:55;12.95;;;9.70;;
57113;SDS011;42994;51.606;9.988;2023-02-15T14:04:40;16.20;;;9.98;;
57113;SDS011;42994;51.606;9.988;2023-02-15T14:07:30;29.88;;;18.30;;
57113;SDS011;42994;51.606;9.988;2023-02-15T14:10:21;17.90;;;11.73;;
57113;SDS011;42994;51.606;9.988;2023-02-15T14:16:11;19.75;;;11.13;;
57113;SDS011;42994;51.606;9.988;2023-02-15T14:18:46;16.85;;;10.95;;
57113;SDS011;42994;51.606;9.988;2023-02-15T14:21:19;16.20;;;10.60;;
57113;SDS011;42994;51.606;9.988;2023-02-15T14:23:55;15.95;;;10.68;;
57113;SDS011;42994;51.606;9.988;2023-02-15T14:26:36;14.90;;;9.97;;
57113;SDS011;42994;51.606;9.988;2023-02-15T14:29:14;16.33;;;11.00;;
57113;SDS011;42994;51.606;9.988;2023-02-15T14:31:52;17.98;;;11.27;;
57113;SDS011;42994;51.606;9.988;2023-02-15T14:34:22;15.98;;;11.43;;
57113;SDS011;42994;51.606;9.988;2023-02-15T14:36:52;15.27;;;9.43;;
57113;SDS011;42994;51.606;9.988;2023-02-15T14:39:26;13.48;;;8.60;;
57113;SDS011;42994;51.606;9.988;2023-02-15T14:42:17;18.27;;;11.20;;
57113;SDS011;42994;51.606;9.988;2023-02-15T14:44:52;16.02;;;9.55;;
57113;SDS011;42994;51.606;9.988;2023-02-15T14:47:27;21.13;;;11.82;;
57113;SDS011;42994;51.606;9.988;2023-02-15T14:52:25;15.73;;;10.25;;
57113;SDS011;42994;51.606;9.988;2023-02-15T14:54:55;16.58;;;11.23;;
57113;SDS011;42994;51.606;9.988;2023-02-15T14:57:25;16.73;;;11.38;;
57113;SDS011;42994;51.606;9.988;2023-02-15T14:59:56;20.17;;;11.32;;
57113;SDS011;42994;51.606;9.988;2023-02-15T15:02:25;16.08;;;9.93;;
57113;SDS011;42994;51.606;9.988;2023-02-15T15:05:01;18.52;;;9.02;;
57113;SDS011;42994;51.606;9.988;2023-02-15T15:07:37;14.00;;;9.20;;
57113;SDS011;42994;51.606;9.988;2023-02-15T15:16:23;14.23;;;9.52;;